Private Wetterstation Wechselburg
Wetterdaten: Freitag, 18.11.2011
Datum Zeit Temp. +2m Bodentemp. Temp.+5cm Temp. Wind Windchill X Diff Temp. Feuchte +2m Feuchte +5cm Sonnenschein Luftdruck Regen Wind Richtung Richtung Sonnenschein UV Taupunkt Windchill Windben
18.11.2011 00:00 1,5 C 9,2 C 1,7 C 1,7 C 1,7 C 0,2 C 93 % 92 % 0 % 1025,5 hPa 0,0 l/m 1,9 km/h (1 Bft) S 180 0 min 0,0 UV-I 0,5 C 1,7 C 4,2 km/h (1 Bft)
18.11.2011 00:04 1,6 C 9,2 C 1,9 C 1,7 C 1,7 C 0,1 C 93 % 93 % 0 % 1025,5 hPa 0,0 l/m 2,4 km/h (1 Bft) SW 225 0 min 0,0 UV-I 0,6 C 1,7 C 4,0 km/h (1 Bft)
18.11.2011 00:09 1,6 C 9,2 C 1,8 C 1,5 C 1,2 C 0,0 C 93 % 93 % 0 % 1025,5 hPa 0,0 l/m 3,5 km/h (1 Bft) O 90 0 min 0,0 UV-I 0,6 C 1,2 C 2,3 km/h (1 Bft)
18.11.2011 00:14 1,7 C 9,2 C 1,9 C 1,6 C 1,4 C 0,0 C 93 % 93 % 0 % 1025,5 hPa 0,0 l/m 3,4 km/h (1 Bft) W-SW 247 0 min 0,0 UV-I 0,7 C 1,4 C 4,2 km/h (1 Bft)
18.11.2011 00:18 1,7 C 9,2 C 1,9 C 1,6 C 1,4 C 0,0 C 93 % 93 % 0 % 1025,5 hPa 0,0 l/m 3,4 km/h (1 Bft) W-SW 247 0 min 0,0 UV-I 0,7 C 1,4 C 4,2 km/h (1 Bft)
18.11.2011 00:25 1,8 C 9,2 C 2,0 C 1,9 C 1,9 C 0,1 C 93 % 93 % 0 % 1026,0 hPa 0,0 l/m 2,6 km/h (1 Bft) SW 225 0 min 0,0 UV-I 0,8 C 1,9 C 3,9 km/h (1 Bft)
18.11.2011 00:30 1,8 C 9,2 C 2,0 C 1,6 C 1,2 C 0,0 C 93 % 93 % 0 % 1026,0 hPa 0,0 l/m 3,9 km/h (1 Bft) W-SW 247 0 min 0,0 UV-I 0,8 C 1,2 C 7,9 km/h (2 Bft)
18.11.2011 00:35 1,9 C 9,2 C 2,1 C 1,6 C 1,1 C 0,0 C 93 % 93 % 0 % 1026,0 hPa 0,0 l/m 4,3 km/h (1 Bft) S-SW 202 0 min 0,0 UV-I 0,9 C 1,1 C 3,7 km/h (1 Bft)
18.11.2011 00:40 1,9 C 9,2 C 2,1 C 1,7 C 1,3 C 0,0 C 93 % 93 % 0 % 1026,0 hPa 0,0 l/m 3,9 km/h (1 Bft) W-SW 247 0 min 0,0 UV-I 0,9 C 1,3 C 9,8 km/h (2 Bft)
18.11.2011 00:45 2,0 C 9,2 C 2,3 C 1,9 C 1,7 C 0,0 C 93 % 93 % 0 % 1026,0 hPa 0,0 l/m 3,2 km/h (1 Bft) W 270 0 min 0,0 UV-I 1,0 C 1,7 C 0,0 km/h (0 Bft)
18.11.2011 00:50 2,0 C 9,2 C 2,2 C 2,0 C 1,9 C 0,0 C 93 % 93 % 0 % 1026,0 hPa 0,0 l/m 3,1 km/h (1 Bft) W-SW 247 0 min 0,0 UV-I 1,0 C 1,9 C 2,7 km/h (1 Bft)
18.11.2011 00:55 2,0 C 9,2 C 2,2 C 2,2 C 2,2 C 0,2 C 93 % 93 % 0 % 1026,0 hPa 0,0 l/m 1,9 km/h (1 Bft) S 180 0 min 0,0 UV-I 1,0 C 2,2 C 2,4 km/h (1 Bft)
18.11.2011 01:00 2,0 C 9,2 C 2,2 C 2,2 C 2,2 C 0,2 C 93 % 93 % 0 % 1025,8 hPa 0,0 l/m 1,3 km/h (1 Bft) S 180 0 min 0,0 UV-I 1,0 C 2,2 C 0,0 km/h (0 Bft)
18.11.2011 01:04 2,0 C 9,2 C 2,3 C 2,2 C 2,2 C 0,2 C 93 % 93 % 0 % 1025,8 hPa 0,0 l/m 0,8 km/h (0 Bft) S 180 0 min 0,0 UV-I 1,0 C 2,2 C 2,9 km/h (1 Bft)
18.11.2011 01:09 2,1 C 9,2 C 2,3 C 2,3 C 2,3 C 0,2 C 93 % 93 % 0 % 1025,8 hPa 0,0 l/m 0,8 km/h (0 Bft) S-SO 157 0 min 0,0 UV-I 1,1 C 2,3 C 1,8 km/h (1 Bft)
18.11.2011 01:14 2,1 C 9,2 C 2,4 C 2,4 C 2,4 C 0,3 C 93 % 93 % 0 % 1025,8 hPa 0,0 l/m 0,8 km/h (0 Bft) SW 225 0 min 0,0 UV-I 1,1 C 2,4 C 0,0 km/h (0 Bft)
18.11.2011 01:20 2,3 C 9,2 C 2,4 C 2,4 C 2,4 C 0,1 C 93 % 93 % 0 % 1026,1 hPa 0,0 l/m 0,8 km/h (0 Bft) S 180 0 min 0,0 UV-I 1,3 C 2,4 C 2,1 km/h (1 Bft)
18.11.2011 01:25 2,3 C 9,2 C 2,4 C 2,4 C 2,4 C 0,1 C 93 % 93 % 0 % 1026,1 hPa 0,0 l/m 0,6 km/h (0 Bft) W 270 0 min 0,0 UV-I 1,3 C 2,4 C 0,0 km/h (0 Bft)
18.11.2011 01:30 2,3 C 9,2 C 2,4 C 2,5 C 2,5 C 0,2 C 93 % 93 % 0 % 1026,1 hPa 0,0 l/m 0,8 km/h (0 Bft) S 180 0 min 0,0 UV-I 1,3 C 2,5 C 0,0 km/h (0 Bft)
18.11.2011 01:35 2,3 C 9,2 C 2,5 C 2,5 C 2,5 C 0,2 C 93 % 93 % 0 % 1026,1 hPa 0,0 l/m 0,6 km/h (0 Bft) SW 225 0 min 0,0 UV-I 1,3 C 2,5 C 1,9 km/h (1 Bft)
18.11.2011 01:40 2,3 C 9,2 C 2,5 C 2,5 C 2,5 C 0,2 C 93 % 93 % 0 % 1025,4 hPa 0,0 l/m 0,5 km/h (0 Bft) NO 45 0 min 0,0 UV-I 1,3 C 2,5 C 0,0 km/h (0 Bft)
18.11.2011 01:45 2,4 C 9,2 C 2,6 C 2,5 C 2,5 C 0,1 C 93 % 93 % 0 % 1025,4 hPa 0,0 l/m 1,0 km/h (0 Bft) W-SW 247 0 min 0,0 UV-I 1,4 C 2,5 C 2,4 km/h (1 Bft)
18.11.2011 01:50 2,4 C 9,2 C 2,7 C 2,6 C 2,6 C 0,2 C 93 % 93 % 0 % 1025,4 hPa 0,0 l/m 1,1 km/h (1 Bft) SO 135 0 min 0,0 UV-I 1,4 C 2,6 C 0,0 km/h (0 Bft)
18.11.2011 01:55 2,4 C 9,2 C 2,7 C 2,6 C 2,6 C 0,2 C 93 % 93 % 0 % 1025,4 hPa 0,0 l/m 0,8 km/h (0 Bft) NO 45 0 min 0,0 UV-I 1,4 C 2,6 C 0,0 km/h (0 Bft)
18.11.2011 02:00 2,4 C 9,2 C 2,7 C 2,6 C 2,6 C 0,2 C 93 % 93 % 0 % 1025,4 hPa 0,0 l/m 0,0 km/h (0 Bft) O-NO 67 0 min 0,0 UV-I 1,4 C 2,6 C 0,0 km/h (0 Bft)
18.11.2011 02:04 2,4 C 9,2 C 2,7 C 2,6 C 2,6 C 0,2 C 93 % 93 % 0 % 1025,4 hPa 0,0 l/m 0,0 km/h (0 Bft) SW 225 0 min 0,0 UV-I 1,4 C 2,6 C 0,0 km/h (0 Bft)
18.11.2011 02:09 2,5 C 9,2 C 2,7 C 2,6 C 2,6 C 0,1 C 93 % 93 % 0 % 1025,4 hPa 0,0 l/m 0,0 km/h (0 Bft) S-SO 157 0 min 0,0 UV-I 1,5 C 2,6 C 0,0 km/h (0 Bft)
18.11.2011 02:14 2,4 C 9,2 C 2,7 C 2,6 C 2,6 C 0,2 C 93 % 93 % 0 % 1025,4 hPa 0,0 l/m 0,0 km/h (0 Bft) O 90 0 min 0,0 UV-I 1,4 C 2,6 C 0,0 km/h (0 Bft)
18.11.2011 02:18 2,4 C 9,2 C 2,7 C 2,6 C 2,6 C 0,2 C 93 % 93 % 0 % 1025,4 hPa 0,0 l/m 0,0 km/h (0 Bft) O 90 0 min 0,0 UV-I 1,4 C 2,6 C 0,0 km/h (0 Bft)
18.11.2011 02:25 2,5 C 9,2 C 2,7 C 2,6 C 2,6 C 0,1 C 93 % 93 % 0 % 1025,9 hPa 0,0 l/m 0,0 km/h (0 Bft) O-NO 67 0 min 0,0 UV-I 1,5 C 2,6 C 0,0 km/h (0 Bft)
18.11.2011 02:30 2,4 C 9,3 C 2,7 C 2,6 C 2,6 C 0,2 C 93 % 93 % 0 % 1025,9 hPa 0,0 l/m 0,0 km/h (0 Bft) N-NO 22 0 min 0,0 UV-I 1,4 C 2,6 C 0,0 km/h (0 Bft)
18.11.2011 02:35 2,5 C 9,3 C 2,7 C 2,7 C 2,7 C 0,2 C 93 % 93 % 0 % 1025,9 hPa 0,0 l/m 0,0 km/h (0 Bft) NO 45 0 min 0,0 UV-I 1,5 C 2,7 C 0,0 km/h (0 Bft)
18.11.2011 02:40 2,4 C 9,3 C 2,7 C 2,7 C 2,7 C 0,3 C 93 % 93 % 0 % 1025,7 hPa 0,0 l/m 0,0 km/h (0 Bft) O-NO 67 0 min 0,0 UV-I 1,4 C 2,7 C 0,0 km/h (0 Bft)
18.11.2011 02:45 2,5 C 9,3 C 2,8 C 2,8 C 2,8 C 0,3 C 93 % 93 % 0 % 1025,7 hPa 0,0 l/m 0,0 km/h (0 Bft) O 90 0 min 0,0 UV-I 1,5 C 2,8 C 0,0 km/h (0 Bft)
18.11.2011 02:50 2,5 C 9,3 C 2,8 C 2,8 C 2,8 C 0,3 C 93 % 93 % 0 % 1025,7 hPa 0,0 l/m 0,2 km/h (0 Bft) S 180 0 min 0,0 UV-I 1,5 C 2,8 C 2,7 km/h (1 Bft)
18.11.2011 02:55 2,6 C 9,3 C 2,8 C 2,9 C 2,9 C 0,3 C 93 % 93 % 0 % 1025,7 hPa 0,0 l/m 0,8 km/h (0 Bft) SW 225 0 min 0,0 UV-I 1,6 C 2,9 C 0,0 km/h (0 Bft)
18.11.2011 03:00 2,7 C 9,3 C 2,8 C 3,0 C 3,0 C 0,3 C 93 % 93 % 0 % 1025,7 hPa 0,0 l/m 0,6 km/h (0 Bft) NO 45 0 min 0,0 UV-I 1,7 C 3,0 C 0,0 km/h (0 Bft)
18.11.2011 03:04 2,7 C 9,3 C 2,9 C 3,0 C 3,0 C 0,3 C 93 % 93 % 0 % 1025,7 hPa 0,0 l/m 0,6 km/h (0 Bft) S-SO 157 0 min 0,0 UV-I 1,7 C 3,0 C 3,7 km/h (1 Bft)
18.11.2011 03:09 2,8 C 9,3 C 2,9 C 3,1 C 3,1 C 0,3 C 93 % 93 % 0 % 1025,7 hPa 0,0 l/m 1,1 km/h (1 Bft) S 180 0 min 0,0 UV-I 1,8 C 3,1 C 1,9 km/h (1 Bft)
18.11.2011 03:14 2,9 C 9,3 C 3,1 C 3,0 C 3,0 C 0,1 C 93 % 93 % 0 % 1025,7 hPa 0,0 l/m 1,1 km/h (1 Bft) SO 135 0 min 0,0 UV-I 1,9 C 3,0 C 0,0 km/h (0 Bft)
18.11.2011 03:18 2,9 C 9,3 C 3,1 C 3,0 C 3,0 C 0,1 C 93 % 93 % 0 % 1025,7 hPa 0,0 l/m 1,1 km/h (1 Bft) SO 135 0 min 0,0 UV-I 1,9 C 3,0 C 0,0 km/h (0 Bft)
18.11.2011 03:25 2,8 C 9,3 C 3,1 C 3,0 C 3,0 C 0,2 C 93 % 93 % 0 % 1025,1 hPa 0,0 l/m 0,0 km/h (0 Bft) S-SO 157 0 min 0,0 UV-I 1,8 C 3,0 C 0,0 km/h (0 Bft)
18.11.2011 03:30 2,8 C 9,3 C 2,9 C 3,0 C 3,0 C 0,2 C 93 % 93 % 0 % 1025,1 hPa 0,0 l/m 0,0 km/h (0 Bft) S 180 0 min 0,0 UV-I 1,8 C 3,0 C 0,0 km/h (0 Bft)
18.11.2011 03:35 2,8 C 9,3 C 3,0 C 3,0 C 3,0 C 0,2 C 93 % 93 % 0 % 1025,1 hPa 0,0 l/m 0,0 km/h (0 Bft) W 270 0 min 0,0 UV-I 1,8 C 3,0 C 0,0 km/h (0 Bft)
18.11.2011 03:40 2,8 C 9,3 C 3,1 C 3,0 C 3,0 C 0,2 C 93 % 93 % 0 % 1024,2 hPa 0,0 l/m 0,0 km/h (0 Bft) NW 315 0 min 0,0 UV-I 1,8 C 3,0 C 0,0 km/h (0 Bft)
18.11.2011 03:45 2,8 C 9,3 C 3,1 C 3,1 C 3,1 C 0,3 C 93 % 93 % 0 % 1024,2 hPa 0,0 l/m 0,0 km/h (0 Bft) W-SW 247 0 min 0,0 UV-I 1,8 C 3,1 C 0,0 km/h (0 Bft)
18.11.2011 03:50 2,8 C 9,4 C 3,0 C 3,1 C 3,1 C 0,3 C 93 % 93 % 0 % 1024,2 hPa 0,0 l/m 0,2 km/h (0 Bft) S-SO 157 0 min 0,0 UV-I 1,8 C 3,1 C 0,0 km/h (0 Bft)
18.11.2011 03:55 2,9 C 9,4 C 3,0 C 3,1 C 3,1 C 0,2 C 93 % 93 % 0 % 1024,2 hPa 0,0 l/m 0,2 km/h (0 Bft) O-NO 67 0 min 0,0 UV-I 1,9 C 3,1 C 0,0 km/h (0 Bft)
18.11.2011 04:00 2,9 C 9,4 C 3,1 C 3,1 C 3,1 C 0,2 C 93 % 93 % 0 % 1025,1 hPa 0,0 l/m 0,0 km/h (0 Bft) O-NO 67 0 min 0,0 UV-I 1,9 C 3,1 C 0,0 km/h (0 Bft)
18.11.2011 04:04 2,8 C 9,4 C 3,1 C 3,1 C 3,1 C 0,3 C 93 % 93 % 0 % 1025,1 hPa 0,0 l/m 0,0 km/h (0 Bft) S-SW 202 0 min 0,0 UV-I 1,8 C 3,1 C 0,0 km/h (0 Bft)
18.11.2011 04:09 2,8 C 9,4 C 3,1 C 3,1 C 3,1 C 0,3 C 93 % 93 % 0 % 1025,1 hPa 0,0 l/m 0,0 km/h (0 Bft) O-NO 67 0 min 0,0 UV-I 1,8 C 3,1 C 0,0 km/h (0 Bft)
18.11.2011 04:14 2,8 C 9,4 C 3,1 C 3,1 C 3,1 C 0,3 C 93 % 93 % 0 % 1025,1 hPa 0,0 l/m 0,0 km/h (0 Bft) O-NO 67 0 min 0,0 UV-I 1,8 C 3,1 C 0,0 km/h (0 Bft)
18.11.2011 04:18 2,8 C 9,4 C 3,1 C 3,1 C 3,1 C 0,3 C 93 % 93 % 0 % 1025,1 hPa 0,0 l/m 0,0 km/h (0 Bft) O-NO 67 0 min 0,0 UV-I 1,8 C 3,1 C 0,0 km/h (0 Bft)
18.11.2011 04:25 2,8 C 9,4 C 3,1 C 3,1 C 3,1 C 0,3 C 93 % 93 % 0 % 1025,3 hPa 0,0 l/m 0,0 km/h (0 Bft) N-NO 22 0 min 0,0 UV-I 1,8 C 3,1 C 0,0 km/h (0 Bft)
18.11.2011 04:30 2,8 C 9,4 C 3,1 C 3,1 C 3,1 C 0,3 C 93 % 93 % 0 % 1025,3 hPa 0,0 l/m 0,0 km/h (0 Bft) S-SO 157 0 min 0,0 UV-I 1,8 C 3,1 C 0,0 km/h (0 Bft)
18.11.2011 04:35 2,8 C 9,4 C 3,1 C 3,2 C 3,2 C 0,4 C 93 % 93 % 0 % 1025,3 hPa 0,0 l/m 0,0 km/h (0 Bft) W 270 0 min 0,0 UV-I 1,8 C 3,2 C 0,0 km/h (0 Bft)
18.11.2011 04:40 2,8 C 9,4 C 3,1 C 3,2 C 3,2 C 0,4 C 93 % 93 % 0 % 1025,3 hPa 0,0 l/m 0,0 km/h (0 Bft) S 180 0 min 0,0 UV-I 1,8 C 3,2 C 0,0 km/h (0 Bft)
18.11.2011 04:45 2,8 C 9,4 C 3,1 C 3,2 C 3,2 C 0,4 C 93 % 93 % 0 % 1025,3 hPa 0,0 l/m 0,0 km/h (0 Bft) O-NO 67 0 min 0,0 UV-I 1,8 C 3,2 C 0,0 km/h (0 Bft)
18.11.2011 04:50 2,8 C 9,4 C 3,1 C 3,2 C 3,2 C 0,4 C 93 % 93 % 0 % 1025,3 hPa 0,0 l/m 0,0 km/h (0 Bft) SW 225 0 min 0,0 UV-I 1,8 C 3,2 C 0,0 km/h (0 Bft)
18.11.2011 04:55 2,8 C 9,4 C 3,1 C 3,2 C 3,2 C 0,4 C 93 % 93 % 0 % 1025,3 hPa 0,0 l/m 0,0 km/h (0 Bft) SO 135 0 min 0,0 UV-I 1,8 C 3,2 C 0,0 km/h (0 Bft)
18.11.2011 05:00 2,8 C 9,4 C 3,1 C 3,2 C 3,2 C 0,4 C 93 % 93 % 0 % 1025,1 hPa 0,0 l/m 0,0 km/h (0 Bft) W-SW 247 0 min 0,0 UV-I 1,8 C 3,2 C 0,0 km/h (0 Bft)
18.11.2011 05:04 2,8 C 9,4 C 3,1 C 3,2 C 3,2 C 0,4 C 93 % 93 % 0 % 1025,1 hPa 0,0 l/m 0,0 km/h (0 Bft) S 180 0 min 0,0 UV-I 1,8 C 3,2 C 0,0 km/h (0 Bft)
18.11.2011 05:09 2,8 C 9,4 C 3,1 C 3,2 C 3,2 C 0,4 C 93 % 93 % 0 % 1025,1 hPa 0,0 l/m 0,0 km/h (0 Bft) W 270 0 min 0,0 UV-I 1,8 C 3,2 C 0,0 km/h (0 Bft)
18.11.2011 05:14 2,8 C 9,4 C 3,1 C 3,2 C 3,2 C 0,4 C 93 % 93 % 0 % 1025,1 hPa 0,0 l/m 0,0 km/h (0 Bft) S 180 0 min 0,0 UV-I 1,8 C 3,2 C 0,0 km/h (0 Bft)
18.11.2011 05:18 2,8 C 9,4 C 3,1 C 3,2 C 3,2 C 0,4 C 93 % 93 % 0 % 1025,1 hPa 0,0 l/m 0,0 km/h (0 Bft) S 180 0 min 0,0 UV-I 1,8 C 3,2 C 0,0 km/h (0 Bft)
18.11.2011 05:25 2,8 C 9,4 C 3,1 C 3,2 C 3,2 C 0,4 C 93 % 93 % 0 % 1025,4 hPa 0,0 l/m 0,0 km/h (0 Bft) SW 225 0 min 0,0 UV-I 1,8 C 3,2 C 0,0 km/h (0 Bft)
18.11.2011 05:30 2,8 C 9,5 C 3,1 C 3,2 C 3,2 C 0,4 C 93 % 93 % 0 % 1025,4 hPa 0,0 l/m 0,0 km/h (0 Bft) SW 225 0 min 0,0 UV-I 1,8 C 3,2 C 0,0 km/h (0 Bft)
18.11.2011 05:35 2,7 C 9,5 C 3,1 C 3,1 C 3,1 C 0,4 C 93 % 93 % 0 % 1025,4 hPa 0,0 l/m 0,0 km/h (0 Bft) O-NO 67 0 min 0,0 UV-I 1,7 C 3,1 C 0,0 km/h (0 Bft)
18.11.2011 05:40 2,7 C 9,5 C 3,0 C 3,1 C 3,1 C 0,4 C 93 % 93 % 0 % 1025,1 hPa 0,0 l/m 0,0 km/h (0 Bft) O-NO 67 0 min 0,0 UV-I 1,7 C 3,1 C 0,0 km/h (0 Bft)
18.11.2011 05:45 2,7 C 9,5 C 3,0 C 3,1 C 3,1 C 0,4 C 93 % 93 % 0 % 1025,1 hPa 0,0 l/m 0,0 km/h (0 Bft) S 180 0 min 0,0 UV-I 1,7 C 3,1 C 0,0 km/h (0 Bft)
18.11.2011 05:50 2,7 C 9,5 C 3,1 C 3,2 C 3,2 C 0,5 C 93 % 93 % 0 % 1025,1 hPa 0,0 l/m 0,0 km/h (0 Bft) O-NO 67 0 min 0,0 UV-I 1,7 C 3,2 C 0,0 km/h (0 Bft)
18.11.2011 05:55 2,8 C 9,5 C 3,1 C 3,2 C 3,2 C 0,4 C 93 % 93 % 0 % 1025,1 hPa 0,0 l/m 0,0 km/h (0 Bft) O 90 0 min 0,0 UV-I 1,8 C 3,2 C 0,0 km/h (0 Bft)
18.11.2011 06:00 2,8 C 9,5 C 3,1 C 3,2 C 3,2 C 0,4 C 93 % 93 % 0 % 1025,1 hPa 0,0 l/m 0,0 km/h (0 Bft) N 360 0 min 0,0 UV-I 1,8 C 3,2 C 0,0 km/h (0 Bft)
18.11.2011 06:04 2,8 C 9,5 C 3,1 C 3,3 C 3,3 C 0,5 C 93 % 93 % 0 % 1025,1 hPa 0,0 l/m 0,0 km/h (0 Bft) W 270 0 min 0,0 UV-I 1,8 C 3,3 C 0,0 km/h (0 Bft)
18.11.2011 06:09 2,8 C 9,5 C 3,2 C 3,3 C 3,3 C 0,5 C 93 % 93 % 0 % 1025,1 hPa 0,0 l/m 0,2 km/h (0 Bft) SW 225 0 min 0,0 UV-I 1,8 C 3,3 C 1,9 km/h (1 Bft)
18.11.2011 06:14 2,9 C 9,4 C 3,2 C 3,4 C 3,4 C 0,5 C 93 % 93 % 0 % 1025,1 hPa 0,0 l/m 1,0 km/h (0 Bft) W 270 0 min 0,0 UV-I 1,9 C 3,4 C 0,0 km/h (0 Bft)
18.11.2011 06:18 2,9 C 9,4 C 3,2 C 3,4 C 3,4 C 0,5 C 93 % 93 % 0 % 1025,1 hPa 0,0 l/m 1,0 km/h (0 Bft) W 270 0 min 0,0 UV-I 1,9 C 3,4 C 0,0 km/h (0 Bft)
18.11.2011 06:25 2,9 C 9,5 C 3,3 C 3,5 C 3,5 C 0,6 C 93 % 93 % 0 % 1024,6 hPa 0,0 l/m 0,5 km/h (0 Bft) SW 225 0 min 0,0 UV-I 1,9 C 3,5 C 0,0 km/h (0 Bft)
18.11.2011 06:30 2,9 C 9,5 C 3,2 C 3,5 C 3,5 C 0,6 C 93 % 93 % 0 % 1024,6 hPa 0,0 l/m 0,5 km/h (0 Bft) O-NO 67 0 min 0,0 UV-I 1,9 C 3,5 C 0,0 km/h (0 Bft)
18.11.2011 06:35 2,9 C 9,5 C 3,2 C 3,4 C 3,4 C 0,5 C 93 % 93 % 0 % 1024,6 hPa 0,0 l/m 0,3 km/h (0 Bft) O-NO 67 0 min 0,0 UV-I 1,9 C 3,4 C 0,0 km/h (0 Bft)
18.11.2011 06:40 2,9 C 9,5 C 3,2 C 3,4 C 3,4 C 0,5 C 93 % 93 % 0 % 1025,1 hPa 0,0 l/m 0,0 km/h (0 Bft) W-SW 247 0 min 0,0 UV-I 1,9 C 3,4 C 0,0 km/h (0 Bft)
18.11.2011 06:45 2,9 C 9,4 C 3,2 C 3,4 C 3,4 C 0,5 C 93 % 93 % 0 % 1025,1 hPa 0,0 l/m 0,0 km/h (0 Bft) S-SW 202 0 min 0,0 UV-I 1,9 C 3,4 C 0,0 km/h (0 Bft)
18.11.2011 06:50 3,0 C 9,4 C 3,3 C 3,5 C 3,5 C 0,5 C 93 % 93 % 0 % 1025,1 hPa 0,0 l/m 0,5 km/h (0 Bft) S-SW 202 0 min 0,0 UV-I 2,0 C 3,5 C 0,0 km/h (0 Bft)
18.11.2011 06:55 3,1 C 9,4 C 3,4 C 3,6 C 3,6 C 0,5 C 93 % 93 % 0 % 1025,1 hPa 0,0 l/m 1,3 km/h (1 Bft) W 270 0 min 0,0 UV-I 2,1 C 3,6 C 2,9 km/h (1 Bft)
18.11.2011 07:00 3,1 C 9,4 C 3,5 C 3,7 C 3,7 C 0,6 C 93 % 93 % 0 % 1024,9 hPa 0,0 l/m 1,0 km/h (0 Bft) S 180 0 min 0,0 UV-I 2,1 C 3,7 C 0,0 km/h (0 Bft)
18.11.2011 07:05 3,2 C 9,4 C 3,5 C 3,6 C 3,6 C 0,4 C 93 % 93 % 0 % 1024,9 hPa 0,0 l/m 1,0 km/h (0 Bft) S 180 0 min 0,0 UV-I 2,2 C 3,6 C 5,0 km/h (1 Bft)
18.11.2011 07:10 3,2 C 9,4 C 3,4 C 3,6 C 3,6 C 0,4 C 93 % 93 % 0 % 1024,9 hPa 0,0 l/m 1,3 km/h (1 Bft) S-SO 157 0 min 0,0 UV-I 2,2 C 3,6 C 0,0 km/h (0 Bft)
18.11.2011 07:15 3,2 C 9,4 C 3,4 C 3,6 C 3,6 C 0,4 C 93 % 93 % 0 % 1024,9 hPa 0,0 l/m 1,8 km/h (1 Bft) S-SO 157 0 min 0,0 UV-I 2,2 C 3,6 C 0,0 km/h (0 Bft)
18.11.2011 07:20 3,2 C 9,4 C 3,5 C 3,6 C 3,6 C 0,4 C 93 % 93 % 0 % 1024,9 hPa 0,0 l/m 1,0 km/h (0 Bft) O 90 0 min 0,0 UV-I 2,2 C 3,6 C 2,3 km/h (1 Bft)
18.11.2011 07:25 3,2 C 9,4 C 3,5 C 3,6 C 3,6 C 0,4 C 93 % 93 % 0 % 1024,9 hPa 0,0 l/m 0,5 km/h (0 Bft) SO 135 0 min 0,0 UV-I 2,2 C 3,6 C 0,0 km/h (0 Bft)
18.11.2011 07:30 3,3 C 9,4 C 3,5 C 3,7 C 3,7 C 0,4 C 93 % 93 % 0 % 1024,9 hPa 0,0 l/m 0,8 km/h (0 Bft) S 180 0 min 0,0 UV-I 2,3 C 3,7 C 0,0 km/h (0 Bft)
18.11.2011 07:35 3,3 C 9,4 C 3,5 C 3,7 C 3,7 C 0,4 C 93 % 93 % 0 % 1024,9 hPa 0,0 l/m 1,3 km/h (1 Bft) S-SO 157 0 min 0,0 UV-I 2,3 C 3,7 C 0,0 km/h (0 Bft)
18.11.2011 07:40 3,5 C 9,4 C 3,5 C 3,8 C 3,8 C 0,3 C 93 % 93 % 0 % 1024,2 hPa 0,0 l/m 0,6 km/h (0 Bft) W 270 0 min 0,0 UV-I 2,5 C 3,8 C 0,0 km/h (0 Bft)
18.11.2011 07:45 3,4 C 9,5 C 3,6 C 3,9 C 3,9 C 0,5 C 93 % 93 % 13 % 1024,2 hPa 0,0 l/m 0,0 km/h (0 Bft) O-NO 67 5 min 0,0 UV-I 2,4 C 3,9 C 0,0 km/h (0 Bft)
18.11.2011 07:50 3,5 C 9,5 C 3,6 C 3,9 C 3,9 C 0,4 C 93 % 93 % 11 % 1024,2 hPa 0,0 l/m 0,0 km/h (0 Bft) NO 45 5 min 0,0 UV-I 2,5 C 3,9 C 0,0 km/h (0 Bft)
18.11.2011 07:55 3,5 C 9,5 C 3,7 C 4,0 C 4,0 C 0,5 C 93 % 93 % 13 % 1024,2 hPa 0,0 l/m 0,0 km/h (0 Bft) NO 45 5 min 0,0 UV-I 2,5 C 4,0 C 0,0 km/h (0 Bft)
18.11.2011 08:00 3,5 C 9,4 C 3,6 C 4,0 C 4,0 C 0,5 C 93 % 93 % 13 % 1024,7 hPa 0,0 l/m 0,0 km/h (0 Bft) SO 135 0 min 0,0 UV-I 2,5 C 4,0 C 0,0 km/h (0 Bft)
18.11.2011 08:10 3,7 C 9,4 C 3,9 C 4,2 C 4,2 C 0,5 C 92 % 93 % 13 % 1024,7 hPa 0,0 l/m 0,0 km/h (0 Bft) N 0 0 min 0,0 UV-I 2,5 C 4,2 C 0,0 km/h (0 Bft)
18.11.2011 08:20 3,7 C 9,5 C 3,9 C 4,2 C 4,2 C 0,5 C 92 % 93 % 13 % 1024,7 hPa 0,0 l/m 0,0 km/h (0 Bft) O-NO 67 0 min 0,0 UV-I 2,5 C 4,2 C 0,0 km/h (0 Bft)
18.11.2011 08:25 3,9 C 9,5 C 3,9 C 4,4 C 4,4 C 0,5 C 92 % 93 % 13 % 1024,7 hPa 0,0 l/m 0,0 km/h (0 Bft) O-NO 67 0 min 0,0 UV-I 2,7 C 4,4 C 0,0 km/h (0 Bft)
18.11.2011 08:30 3,8 C 9,5 C 4,0 C 4,6 C 4,6 C 0,8 C 92 % 93 % 21 % 1024,7 hPa 0,0 l/m 0,0 km/h (0 Bft) W 270 0 min 0,0 UV-I 2,6 C 4,6 C 0,0 km/h (0 Bft)
18.11.2011 08:35 3,9 C 9,4 C 4,1 C 4,8 C 4,8 C 0,9 C 92 % 93 % 24 % 1024,7 hPa 0,0 l/m 0,0 km/h (0 Bft) S 180 0 min 0,0 UV-I 2,7 C 4,8 C 1,6 km/h (1 Bft)
18.11.2011 08:40 4,0 C 9,4 C 4,1 C 4,8 C 4,8 C 0,8 C 92 % 93 % 21 % 1025,6 hPa 0,0 l/m 0,3 km/h (0 Bft) W-SW 247 0 min 0,0 UV-I 2,8 C 4,8 C 0,0 km/h (0 Bft)
18.11.2011 08:45 4,0 C 9,4 C 4,1 C 4,9 C 4,9 C 0,9 C 92 % 93 % 24 % 1025,6 hPa 0,0 l/m 0,3 km/h (0 Bft) O-SO 112 0 min 0,0 UV-I 2,8 C 4,9 C 0,0 km/h (0 Bft)
18.11.2011 08:50 4,1 C 9,5 C 4,1 C 4,9 C 4,9 C 0,8 C 92 % 93 % 21 % 1025,6 hPa 0,0 l/m 0,0 km/h (0 Bft) SO 135 0 min 0,0 UV-I 2,9 C 4,9 C 0,0 km/h (0 Bft)
18.11.2011 08:55 4,2 C 9,4 C 4,3 C 5,1 C 5,1 C 0,9 C 92 % 93 % 24 % 1025,6 hPa 0,0 l/m 0,0 km/h (0 Bft) SO 135 0 min 0,0 UV-I 3,0 C 5,1 C 0,0 km/h (0 Bft)
18.11.2011 09:00 4,2 C 9,4 C 4,3 C 5,1 C 5,1 C 0,9 C 92 % 92 % 24 % 1025,2 hPa 0,0 l/m 0,0 km/h (0 Bft) O-NO 67 0 min 0,0 UV-I 3,0 C 5,1 C 0,0 km/h (0 Bft)
18.11.2011 09:04 4,3 C 9,4 C 4,3 C 5,2 C 5,2 C 0,9 C 92 % 92 % 24 % 1025,2 hPa 0,0 l/m 0,0 km/h (0 Bft) S 180 0 min 0,0 UV-I 3,1 C 5,2 C 0,0 km/h (0 Bft)
18.11.2011 09:09 4,3 C 9,4 C 4,4 C 5,3 C 5,3 C 1,0 C 92 % 92 % 26 % 1025,2 hPa 0,0 l/m 0,0 km/h (0 Bft) SW 225 0 min 0,0 UV-I 3,1 C 5,3 C 0,0 km/h (0 Bft)
18.11.2011 09:14 4,5 C 9,4 C 4,4 C 5,4 C 5,4 C 0,9 C 92 % 92 % 24 % 1025,2 hPa 0,0 l/m 0,0 km/h (0 Bft) SW 225 0 min 0,0 UV-I 3,3 C 5,4 C 0,0 km/h (0 Bft)
18.11.2011 09:18 4,5 C 9,4 C 4,4 C 5,4 C 5,4 C 0,9 C 92 % 92 % 24 % 1025,2 hPa 0,0 l/m 0,0 km/h (0 Bft) SW 225 0 min 0,0 UV-I 3,3 C 5,4 C 0,0 km/h (0 Bft)
18.11.2011 09:25 4,6 C 9,4 C 4,7 C 5,5 C 5,5 C 0,9 C 92 % 93 % 24 % 1025,0 hPa 0,0 l/m 1,3 km/h (1 Bft) S-SO 157 0 min 0,0 UV-I 3,4 C 5,5 C 2,3 km/h (1 Bft)
18.11.2011 09:30 4,7 C 9,4 C 4,7 C 5,6 C 5,6 C 0,9 C 92 % 93 % 24 % 1025,0 hPa 0,0 l/m 1,8 km/h (1 Bft) NW 315 0 min 0,0 UV-I 3,5 C 5,6 C 0,0 km/h (0 Bft)
18.11.2011 09:35 4,7 C 9,4 C 4,8 C 5,8 C 5,8 C 1,1 C 92 % 93 % 29 % 1025,0 hPa 0,0 l/m 0,6 km/h (0 Bft) N-NO 22 0 min 0,0 UV-I 3,5 C 5,8 C 0,0 km/h (0 Bft)
18.11.2011 09:40 4,8 C 9,4 C 4,9 C 5,8 C 5,8 C 1,0 C 92 % 92 % 26 % 1025,2 hPa 0,0 l/m 0,0 km/h (0 Bft) W-SW 247 0 min 0,0 UV-I 3,6 C 5,8 C 0,0 km/h (0 Bft)
18.11.2011 09:45 4,9 C 9,4 C 4,9 C 5,8 C 5,8 C 0,9 C 91 % 92 % 24 % 1025,2 hPa 0,0 l/m 1,0 km/h (0 Bft) W 270 0 min 0,0 UV-I 3,6 C 5,8 C 2,6 km/h (1 Bft)
18.11.2011 09:50 4,9 C 9,5 C 4,8 C 5,7 C 5,7 C 0,8 C 91 % 92 % 21 % 1025,2 hPa 0,0 l/m 1,8 km/h (1 Bft) W-SW 247 0 min 0,0 UV-I 3,6 C 5,7 C 2,4 km/h (1 Bft)
18.11.2011 09:55 4,9 C 9,5 C 4,8 C 5,7 C 5,7 C 0,8 C 91 % 92 % 21 % 1025,2 hPa 0,0 l/m 1,3 km/h (1 Bft) W-SW 247 0 min 0,0 UV-I 3,6 C 5,7 C 0,0 km/h (0 Bft)
18.11.2011 10:00 4,8 C 9,5 C 4,9 C 5,8 C 5,8 C 1,0 C 91 % 92 % 26 % 1026,0 hPa 0,0 l/m 1,3 km/h (1 Bft) W 270 0 min 0,0 UV-I 3,5 C 5,8 C 3,1 km/h (1 Bft)
18.11.2011 10:04 4,9 C 9,4 C 5,0 C 5,8 C 5,8 C 0,9 C 91 % 92 % 24 % 1026,0 hPa 0,0 l/m 2,1 km/h (1 Bft) SW 225 0 min 0,0 UV-I 3,6 C 5,8 C 2,7 km/h (1 Bft)
18.11.2011 10:09 4,9 C 9,4 C 5,1 C 5,8 C 5,8 C 0,9 C 91 % 92 % 24 % 1026,0 hPa 0,0 l/m 2,4 km/h (1 Bft) W-SW 247 0 min 0,0 UV-I 3,6 C 5,8 C 3,1 km/h (1 Bft)
18.11.2011 10:14 5,0 C 9,3 C 5,1 C 5,9 C 5,9 C 0,9 C 91 % 92 % 24 % 1026,0 hPa 0,0 l/m 2,7 km/h (1 Bft) W-SW 247 0 min 0,0 UV-I 3,7 C 5,9 C 2,7 km/h (1 Bft)
18.11.2011 10:18 5,0 C 9,3 C 5,1 C 5,9 C 5,9 C 0,9 C 91 % 92 % 24 % 1026,0 hPa 0,0 l/m 2,7 km/h (1 Bft) W-SW 247 0 min 0,0 UV-I 3,7 C 5,9 C 2,7 km/h (1 Bft)
18.11.2011 10:25 5,2 C 9,3 C 5,2 C 6,1 C 6,1 C 0,9 C 91 % 92 % 24 % 1026,1 hPa 0,0 l/m 2,6 km/h (1 Bft) W-SW 247 0 min 0,0 UV-I 3,9 C 6,1 C 3,1 km/h (1 Bft)
18.11.2011 10:30 5,2 C 9,3 C 5,2 C 6,2 C 6,2 C 1,0 C 91 % 92 % 26 % 1026,1 hPa 0,0 l/m 2,6 km/h (1 Bft) W-SW 247 0 min 0,0 UV-I 3,9 C 6,2 C 3,5 km/h (1 Bft)
18.11.2011 10:35 5,3 C 9,3 C 5,3 C 6,3 C 6,3 C 1,0 C 91 % 92 % 26 % 1026,1 hPa 0,0 l/m 3,1 km/h (1 Bft) W-SW 247 0 min 0,0 UV-I 4,0 C 6,3 C 3,2 km/h (1 Bft)
18.11.2011 10:40 5,5 C 9,4 C 5,3 C 6,3 C 6,3 C 0,8 C 90 % 92 % 21 % 1026,1 hPa 0,0 l/m 3,2 km/h (1 Bft) SW 225 0 min 0,0 UV-I 4,0 C 6,3 C 2,7 km/h (1 Bft)
18.11.2011 10:45 5,5 C 9,4 C 5,5 C 6,4 C 6,4 C 0,9 C 90 % 92 % 24 % 1026,1 hPa 0,0 l/m 3,1 km/h (1 Bft) W-SW 247 0 min 0,0 UV-I 4,0 C 6,4 C 3,5 km/h (1 Bft)
18.11.2011 10:50 5,5 C 9,4 C 5,5 C 6,4 C 6,4 C 0,9 C 90 % 92 % 24 % 1026,1 hPa 0,0 l/m 3,1 km/h (1 Bft) W-SW 247 0 min 0,0 UV-I 4,0 C 6,4 C 3,9 km/h (1 Bft)
18.11.2011 10:55 5,5 C 9,4 C 5,6 C 6,5 C 6,5 C 1,0 C 90 % 91 % 26 % 1026,1 hPa 0,0 l/m 3,1 km/h (1 Bft) W-SW 247 0 min 0,0 UV-I 4,0 C 6,5 C 3,4 km/h (1 Bft)
18.11.2011 11:00 5,6 C 9,4 C 5,7 C 6,6 C 6,6 C 1,0 C 90 % 91 % 26 % 1026,1 hPa 0,0 l/m 2,6 km/h (1 Bft) W-SW 247 0 min 0,0 UV-I 4,1 C 6,6 C 0,0 km/h (0 Bft)
18.11.2011 11:04 5,6 C 9,4 C 5,6 C 6,7 C 6,7 C 1,1 C 90 % 91 % 29 % 1026,1 hPa 0,0 l/m 1,4 km/h (1 Bft) W-SW 247 0 min 0,0 UV-I 4,1 C 6,7 C 0,0 km/h (0 Bft)
18.11.2011 11:09 5,7 C 9,4 C 5,7 C 6,9 C 6,9 C 1,2 C 90 % 91 % 32 % 1026,1 hPa 0,0 l/m 0,5 km/h (0 Bft) SO 135 0 min 0,0 UV-I 4,2 C 6,9 C 0,0 km/h (0 Bft)
18.11.2011 11:14 5,9 C 9,4 C 5,8 C 6,9 C 6,9 C 1,0 C 90 % 91 % 26 % 1026,1 hPa 0,0 l/m 1,0 km/h (0 Bft) W-SW 247 0 min 0,0 UV-I 4,4 C 6,9 C 2,7 km/h (1 Bft)
18.11.2011 11:17 5,9 C 9,4 C 5,8 C 6,9 C 6,9 C 1,0 C 90 % 91 % 26 % 1026,1 hPa 0,0 l/m 1,0 km/h (0 Bft) W-SW 247 0 min 0,0 UV-I 4,4 C 6,9 C 2,7 km/h (1 Bft)
18.11.2011 11:20 5,9 C 9,4 C 5,9 C 7,0 C 7,0 C 1,1 C 90 % 92 % 29 % 1026,1 hPa 0,0 l/m 1,4 km/h (1 Bft) NO 45 0 min 0,0 UV-I 4,4 C 7,0 C 0,0 km/h (0 Bft)
18.11.2011 11:25 6,0 C 9,4 C 5,9 C 7,2 C 7,2 C 1,2 C 90 % 92 % 32 % 1026,1 hPa 0,0 l/m 1,0 km/h (0 Bft) O-NO 67 0 min 0,0 UV-I 4,5 C 7,2 C 0,0 km/h (0 Bft)
18.11.2011 11:30 6,1 C 9,4 C 6,0 C 7,4 C 7,4 C 1,3 C 90 % 92 % 34 % 1026,1 hPa 0,0 l/m 0,3 km/h (0 Bft) S-SO 157 0 min 0,0 UV-I 4,6 C 7,4 C 2,6 km/h (1 Bft)
18.11.2011 11:35 6,1 C 9,4 C 6,1 C 7,6 C 7,6 C 1,5 C 90 % 91 % 39 % 1026,1 hPa 0,0 l/m 1,0 km/h (0 Bft) W-SW 247 0 min 0,0 UV-I 4,6 C 7,6 C 4,8 km/h (1 Bft)
18.11.2011 11:40 6,3 C 9,4 C 6,1 C 7,6 C 7,6 C 1,3 C 90 % 91 % 34 % 1026,1 hPa 0,0 l/m 1,3 km/h (1 Bft) S 180 0 min 0,0 UV-I 4,8 C 7,6 C 0,0 km/h (0 Bft)
18.11.2011 11:45 6,3 C 9,4 C 6,3 C 7,8 C 7,8 C 1,5 C 90 % 91 % 39 % 1026,1 hPa 0,0 l/m 1,0 km/h (0 Bft) S 180 0 min 0,0 UV-I 4,8 C 7,8 C 1,9 km/h (1 Bft)
18.11.2011 11:50 6,4 C 9,4 C 6,3 C 7,8 C 7,8 C 1,4 C 89 % 91 % 37 % 1026,1 hPa 0,0 l/m 1,1 km/h (1 Bft) W-SW 247 0 min 0,0 UV-I 4,7 C 7,8 C 0,0 km/h (0 Bft)
18.11.2011 11:55 6,5 C 9,4 C 6,4 C 7,9 C 7,9 C 1,4 C 89 % 91 % 37 % 1026,1 hPa 0,0 l/m 2,6 km/h (1 Bft) SW 225 0 min 0,0 UV-I 4,8 C 7,9 C 4,7 km/h (1 Bft)
18.11.2011 12:00 6,5 C 9,4 C 6,4 C 7,9 C 7,9 C 1,4 C 89 % 91 % 37 % 1026,2 hPa 0,0 l/m 2,3 km/h (1 Bft) NO 45 0 min 0,0 UV-I 4,8 C 7,9 C 0,0 km/h (0 Bft)
18.11.2011 12:04 6,5 C 9,4 C 6,4 C 7,9 C 7,9 C 1,4 C 89 % 91 % 37 % 1026,2 hPa 0,0 l/m 2,1 km/h (1 Bft) S 180 0 min 0,0 UV-I 4,8 C 7,9 C 0,0 km/h (0 Bft)
18.11.2011 12:09 6,5 C 9,4 C 6,5 C 7,9 C 7,9 C 1,4 C 89 % 90 % 37 % 1026,2 hPa 0,0 l/m 1,0 km/h (0 Bft) SO 135 0 min 0,0 UV-I 4,8 C 7,9 C 3,5 km/h (1 Bft)
18.11.2011 12:14 6,7 C 9,4 C 6,5 C 8,0 C 8,0 C 1,3 C 88 % 90 % 34 % 1026,2 hPa 0,0 l/m 1,6 km/h (1 Bft) SW 225 0 min 0,0 UV-I 4,9 C 8,0 C 4,8 km/h (1 Bft)
18.11.2011 12:18 6,7 C 9,4 C 6,5 C 8,0 C 8,0 C 1,3 C 88 % 90 % 34 % 1026,2 hPa 0,0 l/m 1,6 km/h (1 Bft) SW 225 0 min 0,0 UV-I 4,9 C 8,0 C 4,8 km/h (1 Bft)
18.11.2011 12:25 6,7 C 9,4 C 6,7 C 8,1 C 8,1 C 1,4 C 88 % 90 % 37 % 1025,0 hPa 0,0 l/m 2,6 km/h (1 Bft) S 180 0 min 0,0 UV-I 4,9 C 8,1 C 2,3 km/h (1 Bft)
18.11.2011 12:30 6,8 C 9,4 C 6,8 C 8,2 C 8,2 C 1,4 C 88 % 90 % 37 % 1025,0 hPa 0,0 l/m 1,6 km/h (1 Bft) W 270 0 min 0,0 UV-I 5,0 C 8,2 C 0,0 km/h (0 Bft)
18.11.2011 12:35 6,8 C 9,4 C 6,8 C 8,2 C 8,2 C 1,4 C 88 % 90 % 37 % 1025,0 hPa 0,0 l/m 1,6 km/h (1 Bft) S-SO 157 0 min 0,0 UV-I 5,0 C 8,2 C 4,2 km/h (1 Bft)
18.11.2011 12:40 6,8 C 9,4 C 6,8 C 8,2 C 8,2 C 1,4 C 88 % 90 % 37 % 1025,4 hPa 0,0 l/m 1,4 km/h (1 Bft) W-SW 247 0 min 0,0 UV-I 5,0 C 8,2 C 0,0 km/h (0 Bft)
18.11.2011 12:45 6,9 C 9,4 C 6,8 C 8,4 C 8,4 C 1,5 C 88 % 90 % 39 % 1025,4 hPa 0,0 l/m 1,4 km/h (1 Bft) S-SO 157 0 min 0,0 UV-I 5,1 C 8,4 C 3,2 km/h (1 Bft)
18.11.2011 12:50 7,1 C 9,4 C 6,9 C 8,4 C 8,4 C 1,3 C 88 % 89 % 34 % 1025,4 hPa 0,0 l/m 1,3 km/h (1 Bft) S 180 0 min 0,0 UV-I 5,2 C 8,4 C 2,7 km/h (1 Bft)
18.11.2011 12:55 7,1 C 9,5 C 6,9 C 8,4 C 8,4 C 1,3 C 88 % 89 % 34 % 1025,4 hPa 0,0 l/m 0,8 km/h (0 Bft) W 270 0 min 0,0 UV-I 5,2 C 8,4 C 3,7 km/h (1 Bft)
18.11.2011 13:00 7,1 C 9,5 C 7,0 C 8,5 C 8,5 C 1,4 C 87 % 89 % 37 % 1024,9 hPa 0,0 l/m 1,3 km/h (1 Bft) SW 225 0 min 0,0 UV-I 5,1 C 8,5 C 2,3 km/h (1 Bft)
18.11.2011 13:04 7,2 C 9,5 C 7,1 C 8,5 C 8,5 C 1,3 C 87 % 89 % 34 % 1024,9 hPa 0,0 l/m 1,3 km/h (1 Bft) W 270 0 min 0,0 UV-I 5,2 C 8,5 C 0,0 km/h (0 Bft)
18.11.2011 13:09 7,2 C 9,5 C 7,1 C 8,6 C 8,6 C 1,4 C 87 % 89 % 37 % 1024,9 hPa 0,0 l/m 1,1 km/h (1 Bft) W-SW 247 0 min 0,0 UV-I 5,2 C 8,6 C 2,4 km/h (1 Bft)
18.11.2011 13:14 7,2 C 9,5 C 7,1 C 8,5 C 8,5 C 1,3 C 87 % 89 % 34 % 1024,9 hPa 0,0 l/m 1,1 km/h (1 Bft) W 270 0 min 0,0 UV-I 5,2 C 8,5 C 0,0 km/h (0 Bft)
18.11.2011 13:18 7,2 C 9,5 C 7,1 C 8,5 C 8,5 C 1,3 C 87 % 89 % 34 % 1024,9 hPa 0,0 l/m 1,1 km/h (1 Bft) W 270 0 min 0,0 UV-I 5,2 C 8,5 C 0,0 km/h (0 Bft)
18.11.2011 13:25 7,4 C 9,5 C 7,1 C 8,6 C 8,6 C 1,2 C 87 % 89 % 32 % 1025,3 hPa 0,0 l/m 0,2 km/h (0 Bft) W-SW 247 0 min 0,0 UV-I 5,4 C 8,6 C 2,3 km/h (1 Bft)
18.11.2011 13:30 7,5 C 9,5 C 7,2 C 8,7 C 8,7 C 1,2 C 87 % 89 % 32 % 1025,3 hPa 0,0 l/m 0,3 km/h (0 Bft) S 180 0 min 0,0 UV-I 5,5 C 8,7 C 1,8 km/h (1 Bft)
18.11.2011 13:35 7,5 C 9,5 C 7,2 C 8,7 C 8,7 C 1,2 C 87 % 89 % 32 % 1025,3 hPa 0,0 l/m 0,5 km/h (0 Bft) N-NW 337 0 min 0,0 UV-I 5,5 C 8,7 C 0,0 km/h (0 Bft)
18.11.2011 13:40 7,5 C 9,5 C 7,2 C 8,7 C 8,7 C 1,2 C 86 % 89 % 32 % 1025,1 hPa 0,0 l/m 0,6 km/h (0 Bft) W-SW 247 0 min 0,0 UV-I 5,3 C 8,7 C 1,8 km/h (1 Bft)
18.11.2011 13:45 7,5 C 9,5 C 7,2 C 8,7 C 8,7 C 1,2 C 86 % 89 % 32 % 1025,1 hPa 0,0 l/m 1,0 km/h (0 Bft) S 180 0 min 0,0 UV-I 5,3 C 8,7 C 0,0 km/h (0 Bft)
18.11.2011 13:50 7,6 C 9,5 C 7,3 C 8,7 C 8,7 C 1,1 C 86 % 89 % 29 % 1025,1 hPa 0,0 l/m 0,6 km/h (0 Bft) S 180 0 min 0,0 UV-I 5,4 C 8,7 C 0,0 km/h (0 Bft)
18.11.2011 13:55 7,7 C 9,6 C 7,3 C 8,8 C 8,8 C 1,1 C 86 % 89 % 29 % 1025,1 hPa 0,0 l/m 0,0 km/h (0 Bft) SW 225 0 min 0,0 UV-I 5,5 C 8,8 C 0,0 km/h (0 Bft)
18.11.2011 14:00 7,6 C 9,6 C 7,3 C 8,8 C 8,8 C 1,2 C 86 % 89 % 32 % 1025,1 hPa 0,0 l/m 0,0 km/h (0 Bft) W-SW 247 0 min 0,0 UV-I 5,4 C 8,8 C 0,0 km/h (0 Bft)
18.11.2011 14:04 7,6 C 9,6 C 7,3 C 8,7 C 8,7 C 1,1 C 86 % 89 % 29 % 1025,1 hPa 0,0 l/m 0,2 km/h (0 Bft) S 180 0 min 0,0 UV-I 5,4 C 8,7 C 0,0 km/h (0 Bft)
18.11.2011 14:09 7,6 C 9,6 C 7,4 C 8,7 C 8,7 C 1,1 C 86 % 89 % 29 % 1025,1 hPa 0,0 l/m 0,3 km/h (0 Bft) SW 225 0 min 0,0 UV-I 5,4 C 8,7 C 0,0 km/h (0 Bft)
18.11.2011 14:14 7,7 C 9,6 C 7,3 C 8,7 C 8,7 C 1,0 C 86 % 89 % 26 % 1025,1 hPa 0,0 l/m 0,2 km/h (0 Bft) S 180 0 min 0,0 UV-I 5,5 C 8,7 C 0,0 km/h (0 Bft)
18.11.2011 14:18 7,7 C 9,6 C 7,3 C 8,7 C 8,7 C 1,0 C 86 % 89 % 26 % 1025,1 hPa 0,0 l/m 0,2 km/h (0 Bft) S 180 0 min 0,0 UV-I 5,5 C 8,7 C 0,0 km/h (0 Bft)
18.11.2011 14:25 7,9 C 9,6 C 7,4 C 8,9 C 8,9 C 1,0 C 86 % 89 % 26 % 1025,1 hPa 0,0 l/m 0,0 km/h (0 Bft) S-SO 157 0 min 0,0 UV-I 5,7 C 8,9 C 0,0 km/h (0 Bft)
18.11.2011 14:30 7,9 C 9,6 C 7,3 C 8,9 C 8,9 C 1,0 C 86 % 89 % 26 % 1025,1 hPa 0,0 l/m 0,0 km/h (0 Bft) S-SO 157 0 min 0,0 UV-I 5,7 C 8,9 C 0,0 km/h (0 Bft)
18.11.2011 14:35 7,9 C 9,6 C 7,5 C 8,9 C 8,9 C 1,0 C 86 % 89 % 26 % 1025,1 hPa 0,0 l/m 0,0 km/h (0 Bft) S-SO 157 0 min 0,0 UV-I 5,7 C 8,9 C 0,0 km/h (0 Bft)
18.11.2011 14:40 7,8 C 9,7 C 7,5 C 9,0 C 9,0 C 1,2 C 86 % 89 % 32 % 1024,4 hPa 0,0 l/m 0,0 km/h (0 Bft) S 180 0 min 0,0 UV-I 5,6 C 9,0 C 2,3 km/h (1 Bft)
18.11.2011 14:45 7,9 C 9,7 C 7,5 C 9,0 C 9,0 C 1,1 C 86 % 89 % 29 % 1024,4 hPa 0,0 l/m 0,2 km/h (0 Bft) SW 225 0 min 0,0 UV-I 5,7 C 9,0 C 0,0 km/h (0 Bft)
18.11.2011 14:50 7,9 C 9,7 C 7,5 C 8,9 C 8,9 C 1,0 C 86 % 89 % 26 % 1024,4 hPa 0,0 l/m 0,3 km/h (0 Bft) W-SW 247 0 min 0,0 UV-I 5,7 C 8,9 C 2,1 km/h (1 Bft)
18.11.2011 14:55 7,9 C 9,7 C 7,5 C 8,7 C 8,7 C 0,8 C 85 % 89 % 21 % 1024,4 hPa 0,0 l/m 0,2 km/h (0 Bft) W-SW 247 0 min 0,0 UV-I 5,5 C 8,7 C 0,0 km/h (0 Bft)
18.11.2011 15:00 7,9 C 9,7 C 7,5 C 8,7 C 8,7 C 0,8 C 85 % 89 % 21 % 1024,4 hPa 0,0 l/m 0,2 km/h (0 Bft) W-SW 247 0 min 0,0 UV-I 5,5 C 8,7 C 0,0 km/h (0 Bft)
18.11.2011 15:04 7,8 C 9,7 C 7,5 C 8,5 C 8,5 C 0,7 C 85 % 89 % 18 % 1024,4 hPa 0,0 l/m 0,0 km/h (0 Bft) W-SW 247 0 min 0,0 UV-I 5,4 C 8,5 C 0,0 km/h (0 Bft)
18.11.2011 15:09 7,9 C 9,7 C 7,3 C 8,5 C 8,5 C 0,6 C 85 % 88 % 16 % 1024,4 hPa 0,0 l/m 0,0 km/h (0 Bft) W-SW 247 0 min 0,0 UV-I 5,5 C 8,5 C 0,0 km/h (0 Bft)
18.11.2011 15:14 7,9 C 9,7 C 7,3 C 8,4 C 8,4 C 0,5 C 85 % 88 % 13 % 1024,4 hPa 0,0 l/m 0,0 km/h (0 Bft) O-SO 112 0 min 0,0 UV-I 5,5 C 8,4 C 0,0 km/h (0 Bft)
18.11.2011 15:18 7,9 C 9,7 C 7,3 C 8,4 C 8,4 C 0,5 C 85 % 88 % 13 % 1024,4 hPa 0,0 l/m 0,0 km/h (0 Bft) O-SO 112 0 min 0,0 UV-I 5,5 C 8,4 C 0,0 km/h (0 Bft)
18.11.2011 15:25 7,7 C 9,8 C 7,3 C 8,0 C 8,0 C 0,3 C 85 % 89 % 8 % 1024,5 hPa 0,0 l/m 0,0 km/h (0 Bft) O-SO 112 0 min 0,0 UV-I 5,3 C 8,0 C 0,0 km/h (0 Bft)
18.11.2011 15:30 7,7 C 9,8 C 7,2 C 7,9 C 7,9 C 0,2 C 85 % 89 % 5 % 1024,5 hPa 0,0 l/m 0,0 km/h (0 Bft) O-SO 112 0 min 0,0 UV-I 5,3 C 7,9 C 0,0 km/h (0 Bft)
18.11.2011 15:35 7,5 C 9,8 C 7,1 C 7,6 C 7,6 C 0,1 C 86 % 89 % 3 % 1024,5 hPa 0,0 l/m 0,0 km/h (0 Bft) O-SO 112 0 min 0,0 UV-I 5,3 C 7,6 C 0,0 km/h (0 Bft)
18.11.2011 15:40 7,5 C 9,9 C 7,1 C 7,5 C 7,5 C 0,0 C 86 % 89 % 0 % 1024,8 hPa 0,0 l/m 0,0 km/h (0 Bft) O-SO 112 0 min 0,0 UV-I 5,3 C 7,5 C 0,0 km/h (0 Bft)
18.11.2011 15:45 7,3 C 9,9 C 7,0 C 7,3 C 7,3 C 0,0 C 86 % 89 % 0 % 1024,8 hPa 0,0 l/m 0,0 km/h (0 Bft) O-SO 112 0 min 0,0 UV-I 5,1 C 7,3 C 0,0 km/h (0 Bft)
18.11.2011 15:50 7,3 C 9,9 C 6,8 C 7,2 C 7,1 C 0,0 C 86 % 89 % 0 % 1024,8 hPa 0,0 l/m 0,0 km/h (0 Bft) O-SO 112 0 min 0,0 UV-I 5,1 C 7,1 C 0,0 km/h (0 Bft)
18.11.2011 15:55 7,2 C 10,0 C 6,6 C 7,1 C 6,9 C 0,0 C 86 % 89 % 0 % 1024,8 hPa 0,0 l/m 0,0 km/h (0 Bft) O-SO 112 0 min 0,0 UV-I 5,0 C 6,9 C 0,0 km/h (0 Bft)
18.11.2011 16:00 7,1 C 10,0 C 6,5 C 6,9 C 6,6 C 0,0 C 86 % 89 % 0 % 1025,2 hPa 0,0 l/m 0,0 km/h (0 Bft) O-SO 112 0 min 0,0 UV-I 4,9 C 6,6 C 0,0 km/h (0 Bft)
18.11.2011 16:04 6,9 C 10,0 C 6,4 C 6,7 C 6,4 C 0,0 C 86 % 89 % 0 % 1025,2 hPa 0,0 l/m 0,0 km/h (0 Bft) O-SO 112 0 min 0,0 UV-I 4,7 C 6,4 C 0,0 km/h (0 Bft)
18.11.2011 16:09 6,8 C 10,1 C 6,3 C 6,6 C 6,3 C 0,0 C 86 % 90 % 0 % 1025,2 hPa 0,0 l/m 0,0 km/h (0 Bft) O-SO 112 0 min 0,0 UV-I 4,6 C 6,3 C 0,0 km/h (0 Bft)
18.11.2011 16:14 6,7 C 10,2 C 6,2 C 6,5 C 6,1 C 0,0 C 86 % 90 % 0 % 1025,2 hPa 0,0 l/m 0,0 km/h (0 Bft) O-SO 112 0 min 0,0 UV-I 4,5 C 6,1 C 0,0 km/h (0 Bft)
18.11.2011 16:18 6,7 C 10,2 C 6,2 C 6,5 C 6,1 C 0,0 C 86 % 90 % 0 % 1025,2 hPa 0,0 l/m 0,0 km/h (0 Bft) O-SO 112 0 min 0,0 UV-I 4,5 C 6,1 C 0,0 km/h (0 Bft)
18.11.2011 16:25 6,3 C 10,3 C 5,9 C 6,1 C 5,7 C 0,0 C 87 % 89 % 0 % 1024,6 hPa 0,0 l/m 0,0 km/h (0 Bft) O-SO 112 0 min 0,0 UV-I 4,3 C 5,7 C 0,0 km/h (0 Bft)
18.11.2011 16:30 6,3 C 10,2 C 5,8 C 6,0 C 5,5 C 0,0 C 87 % 89 % 0 % 1024,6 hPa 0,0 l/m 0,0 km/h (0 Bft) O-SO 112 0 min 0,0 UV-I 4,3 C 5,5 C 0,0 km/h (0 Bft)
18.11.2011 16:35 6,0 C 10,3 C 5,6 C 5,8 C 5,5 C 0,0 C 87 % 89 % 0 % 1024,6 hPa 0,0 l/m 0,0 km/h (0 Bft) O-SO 112 0 min 0,0 UV-I 4,0 C 5,5 C 0,0 km/h (0 Bft)
18.11.2011 16:40 6,0 C 10,3 C 5,6 C 5,8 C 5,4 C 0,0 C 87 % 90 % 0 % 1025,1 hPa 0,0 l/m 0,0 km/h (0 Bft) O-SO 112 0 min 0,0 UV-I 4,0 C 5,4 C 0,0 km/h (0 Bft)
18.11.2011 16:45 5,8 C 10,3 C 5,5 C 5,6 C 5,3 C 0,0 C 88 % 90 % 0 % 1025,1 hPa 0,0 l/m 0,0 km/h (0 Bft) O-SO 112 0 min 0,0 UV-I 4,0 C 5,3 C 0,0 km/h (0 Bft)
18.11.2011 16:50 5,8 C 10,3 C 5,5 C 5,6 C 5,3 C 0,0 C 88 % 90 % 0 % 1025,1 hPa 0,0 l/m 0,0 km/h (0 Bft) O-SO 112 0 min 0,0 UV-I 4,0 C 5,3 C 0,0 km/h (0 Bft)
18.11.2011 16:55 5,6 C 10,3 C 5,2 C 5,4 C 5,1 C 0,0 C 88 % 90 % 0 % 1025,1 hPa 0,0 l/m 0,0 km/h (0 Bft) O-SO 112 0 min 0,0 UV-I 3,8 C 5,1 C 0,0 km/h (0 Bft)
18.11.2011 17:00 5,5 C 10,3 C 5,0 C 5,3 C 5,0 C 0,0 C 88 % 90 % 0 % 1024,7 hPa 0,0 l/m 0,0 km/h (0 Bft) O-SO 112 0 min 0,0 UV-I 3,7 C 5,0 C 0,0 km/h (0 Bft)
18.11.2011 17:05 5,3 C 10,3 C 4,9 C 5,2 C 4,9 C 0,0 C 88 % 90 % 0 % 1024,7 hPa 0,0 l/m 0,0 km/h (0 Bft) O-SO 112 0 min 0,0 UV-I 3,5 C 4,9 C 0,0 km/h (0 Bft)
18.11.2011 17:10 5,2 C 10,4 C 4,9 C 5,1 C 4,9 C 0,0 C 88 % 90 % 0 % 1024,7 hPa 0,0 l/m 0,0 km/h (0 Bft) O-SO 112 0 min 0,0 UV-I 3,4 C 4,9 C 0,0 km/h (0 Bft)
18.11.2011 17:15 5,2 C 10,3 C 4,8 C 5,1 C 4,9 C 0,0 C 89 % 90 % 0 % 1024,7 hPa 0,0 l/m 0,0 km/h (0 Bft) O-SO 112 0 min 0,0 UV-I 3,5 C 4,9 C 0,0 km/h (0 Bft)
18.11.2011 17:20 5,1 C 10,3 C 4,7 C 5,0 C 4,7 C 0,0 C 89 % 91 % 0 % 1024,2 hPa 0,0 l/m 0,0 km/h (0 Bft) O-SO 112 0 min 0,0 UV-I 3,4 C 4,7 C 0,0 km/h (0 Bft)
18.11.2011 17:25 4,9 C 10,4 C 4,6 C 4,8 C 4,5 C 0,0 C 89 % 90 % 0 % 1024,2 hPa 0,0 l/m 0,0 km/h (0 Bft) O-SO 112 0 min 0,0 UV-I 3,2 C 4,5 C 0,0 km/h (0 Bft)
18.11.2011 17:30 4,8 C 10,4 C 4,5 C 4,7 C 4,4 C 0,0 C 88 % 90 % 0 % 1024,2 hPa 0,0 l/m 0,0 km/h (0 Bft) SO 135 0 min 0,0 UV-I 3,0 C 4,4 C 0,0 km/h (0 Bft)
18.11.2011 17:35 4,7 C 10,4 C 4,5 C 4,6 C 4,4 C 0,0 C 89 % 91 % 0 % 1024,2 hPa 0,0 l/m 0,0 km/h (0 Bft) SO 135 0 min 0,0 UV-I 3,0 C 4,4 C 0,0 km/h (0 Bft)
18.11.2011 17:40 4,7 C 10,4 C 4,5 C 4,6 C 4,4 C 0,0 C 89 % 91 % 0 % 1024,2 hPa 0,0 l/m 0,0 km/h (0 Bft) S 180 0 min 0,0 UV-I 3,0 C 4,4 C 0,0 km/h (0 Bft)
18.11.2011 17:45 4,7 C 10,4 C 4,4 C 4,6 C 4,3 C 0,0 C 89 % 91 % 0 % 1024,2 hPa 0,0 l/m 0,0 km/h (0 Bft) S 180 0 min 0,0 UV-I 3,0 C 4,3 C 0,0 km/h (0 Bft)
18.11.2011 17:50 4,5 C 10,4 C 4,5 C 4,4 C 4,3 C 0,0 C 89 % 91 % 0 % 1024,2 hPa 0,0 l/m 0,0 km/h (0 Bft) S-SO 157 0 min 0,0 UV-I 2,8 C 4,3 C 0,0 km/h (0 Bft)
18.11.2011 17:55 4,4 C 10,4 C 4,3 C 4,3 C 4,2 C 0,0 C 89 % 91 % 0 % 1024,2 hPa 0,0 l/m 0,0 km/h (0 Bft) S 180 0 min 0,0 UV-I 2,7 C 4,2 C 0,0 km/h (0 Bft)
18.11.2011 18:00 4,4 C 10,4 C 4,3 C 4,3 C 4,2 C 0,0 C 90 % 91 % 0 % 1024,2 hPa 0,0 l/m 0,0 km/h (0 Bft) S 180 0 min 0,0 UV-I 2,9 C 4,2 C 0,0 km/h (0 Bft)
18.11.2011 18:04 4,3 C 10,4 C 4,2 C 4,3 C 4,2 C 0,0 C 90 % 91 % 0 % 1024,2 hPa 0,0 l/m 0,0 km/h (0 Bft) S 180 0 min 0,0 UV-I 2,8 C 4,2 C 0,0 km/h (0 Bft)
18.11.2011 18:09 4,3 C 10,4 C 4,3 C 4,3 C 4,2 C 0,0 C 90 % 91 % 0 % 1024,2 hPa 0,0 l/m 0,0 km/h (0 Bft) S 180 0 min 0,0 UV-I 2,8 C 4,2 C 0,0 km/h (0 Bft)
18.11.2011 18:14 4,2 C 10,4 C 4,3 C 4,2 C 4,2 C 0,0 C 90 % 91 % 0 % 1024,2 hPa 0,0 l/m 0,0 km/h (0 Bft) S 180 0 min 0,0 UV-I 2,7 C 4,2 C 0,0 km/h (0 Bft)
18.11.2011 18:18 4,2 C 10,4 C 4,3 C 4,2 C 4,2 C 0,0 C 90 % 91 % 0 % 1024,2 hPa 0,0 l/m 0,0 km/h (0 Bft) S 180 0 min 0,0 UV-I 2,7 C 4,2 C 0,0 km/h (0 Bft)
18.11.2011 18:25 4,1 C 10,4 C 4,2 C 4,2 C 4,2 C 0,1 C 90 % 92 % 0 % 1024,2 hPa 0,0 l/m 0,0 km/h (0 Bft) S 180 0 min 0,0 UV-I 2,6 C 4,2 C 0,0 km/h (0 Bft)
18.11.2011 18:30 4,1 C 10,4 C 4,1 C 4,2 C 4,2 C 0,1 C 90 % 92 % 0 % 1024,2 hPa 0,0 l/m 0,0 km/h (0 Bft) S 180 0 min 0,0 UV-I 2,6 C 4,2 C 0,0 km/h (0 Bft)
18.11.2011 18:35 4,0 C 10,4 C 4,1 C 4,2 C 4,2 C 0,2 C 90 % 92 % 0 % 1024,2 hPa 0,0 l/m 0,0 km/h (0 Bft) S 180 0 min 0,0 UV-I 2,5 C 4,2 C 0,0 km/h (0 Bft)
18.11.2011 18:40 4,0 C 10,4 C 4,0 C 4,2 C 4,2 C 0,2 C 90 % 92 % 0 % 1024,2 hPa 0,0 l/m 0,0 km/h (0 Bft) S 180 0 min 0,0 UV-I 2,5 C 4,2 C 0,0 km/h (0 Bft)
18.11.2011 18:45 4,0 C 10,4 C 4,1 C 4,2 C 4,2 C 0,2 C 90 % 92 % 0 % 1024,2 hPa 0,0 l/m 0,0 km/h (0 Bft) S 180 0 min 0,0 UV-I 2,5 C 4,2 C 0,0 km/h (0 Bft)
18.11.2011 18:50 3,9 C 10,4 C 4,1 C 4,2 C 4,2 C 0,3 C 90 % 92 % 0 % 1024,2 hPa 0,0 l/m 0,0 km/h (0 Bft) S 180 0 min 0,0 UV-I 2,4 C 4,2 C 0,0 km/h (0 Bft)
18.11.2011 18:55 3,9 C 10,4 C 4,1 C 4,2 C 4,2 C 0,3 C 91 % 92 % 0 % 1024,2 hPa 0,0 l/m 0,0 km/h (0 Bft) S 180 0 min 0,0 UV-I 2,6 C 4,2 C 0,0 km/h (0 Bft)
18.11.2011 19:00 3,9 C 10,4 C 4,1 C 4,1 C 4,1 C 0,2 C 91 % 92 % 0 % 1024,8 hPa 0,0 l/m 0,0 km/h (0 Bft) S 180 0 min 0,0 UV-I 2,6 C 4,1 C 0,0 km/h (0 Bft)
18.11.2011 19:04 3,9 C 10,4 C 4,0 C 4,0 C 4,0 C 0,1 C 91 % 92 % 0 % 1024,8 hPa 0,0 l/m 0,0 km/h (0 Bft) S 180 0 min 0,0 UV-I 2,6 C 4,0 C 0,0 km/h (0 Bft)
18.11.2011 19:09 3,8 C 10,4 C 4,0 C 3,9 C 3,9 C 0,1 C 91 % 92 % 0 % 1024,8 hPa 0,0 l/m 0,0 km/h (0 Bft) S 180 0 min 0,0 UV-I 2,5 C 3,9 C 0,0 km/h (0 Bft)
18.11.2011 19:14 3,9 C 10,4 C 4,0 C 3,9 C 3,8 C 0,0 C 91 % 92 % 0 % 1024,8 hPa 0,0 l/m 0,0 km/h (0 Bft) S 180 0 min 0,0 UV-I 2,6 C 3,8 C 0,0 km/h (0 Bft)
18.11.2011 19:18 3,9 C 10,4 C 4,0 C 3,9 C 3,8 C 0,0 C 91 % 92 % 0 % 1024,8 hPa 0,0 l/m 0,0 km/h (0 Bft) S 180 0 min 0,0 UV-I 2,6 C 3,8 C 0,0 km/h (0 Bft)
18.11.2011 19:25 3,7 C 10,5 C 3,9 C 3,7 C 3,7 C 0,0 C 91 % 92 % 0 % 1024,5 hPa 0,0 l/m 0,0 km/h (0 Bft) S 180 0 min 0,0 UV-I 2,4 C 3,7 C 0,0 km/h (0 Bft)
18.11.2011 19:30 3,7 C 10,5 C 3,9 C 3,7 C 3,7 C 0,0 C 91 % 92 % 0 % 1024,5 hPa 0,0 l/m 0,0 km/h (0 Bft) SO 135 0 min 0,0 UV-I 2,4 C 3,7 C 0,0 km/h (0 Bft)
18.11.2011 19:35 3,6 C 10,5 C 3,9 C 3,7 C 3,7 C 0,1 C 91 % 92 % 0 % 1024,5 hPa 0,0 l/m 0,0 km/h (0 Bft) SO 135 0 min 0,0 UV-I 2,3 C 3,7 C 0,0 km/h (0 Bft)
18.11.2011 19:40 3,6 C 10,5 C 3,9 C 3,8 C 3,8 C 0,2 C 91 % 92 % 0 % 1024,1 hPa 0,0 l/m 0,0 km/h (0 Bft) SO 135 0 min 0,0 UV-I 2,3 C 3,8 C 0,0 km/h (0 Bft)
18.11.2011 19:45 3,6 C 10,5 C 3,9 C 3,7 C 3,7 C 0,1 C 91 % 92 % 0 % 1024,1 hPa 0,0 l/m 0,0 km/h (0 Bft) SO 135 0 min 0,0 UV-I 2,3 C 3,7 C 0,0 km/h (0 Bft)
18.11.2011 19:50 3,6 C 10,5 C 3,8 C 3,7 C 3,7 C 0,1 C 91 % 92 % 0 % 1024,1 hPa 0,0 l/m 0,0 km/h (0 Bft) SO 135 0 min 0,0 UV-I 2,3 C 3,7 C 0,0 km/h (0 Bft)
18.11.2011 19:55 3,6 C 10,5 C 3,9 C 3,7 C 3,7 C 0,1 C 91 % 92 % 0 % 1024,1 hPa 0,0 l/m 0,0 km/h (0 Bft) S-SO 157 0 min 0,0 UV-I 2,3 C 3,7 C 0,0 km/h (0 Bft)
18.11.2011 20:00 3,6 C 10,5 C 3,9 C 3,7 C 3,7 C 0,1 C 91 % 92 % 0 % 1024,6 hPa 0,0 l/m 0,0 km/h (0 Bft) S-SO 157 0 min 0,0 UV-I 2,3 C 3,7 C 0,0 km/h (0 Bft)
18.11.2011 20:10 3,4 C 10,5 C 3,8 C 3,5 C 3,5 C 0,1 C 91 % 92 % 0 % 1024,6 hPa 0,0 l/m 0,0 km/h (0 Bft) N 0 0 min 0,0 UV-I 2,1 C 3,5 C 0,0 km/h (0 Bft)
18.11.2011 20:20 3,5 C 10,5 C 3,7 C 3,5 C 3,4 C 0,0 C 91 % 92 % 0 % 1024,6 hPa 0,0 l/m 0,2 km/h (0 Bft) S 180 0 min 0,0 UV-I 2,2 C 3,4 C 0,0 km/h (0 Bft)
18.11.2011 20:25 3,5 C 10,5 C 3,6 C 3,5 C 3,4 C 0,0 C 92 % 92 % 0 % 1024,6 hPa 0,0 l/m 0,2 km/h (0 Bft) S 180 0 min 0,0 UV-I 2,3 C 3,4 C 0,0 km/h (0 Bft)
18.11.2011 20:30 3,5 C 10,5 C 3,7 C 3,5 C 3,4 C 0,0 C 92 % 92 % 0 % 1024,6 hPa 0,0 l/m 0,0 km/h (0 Bft) S 180 0 min 0,0 UV-I 2,3 C 3,4 C 0,0 km/h (0 Bft)
18.11.2011 20:35 3,3 C 10,5 C 3,6 C 3,4 C 3,4 C 0,1 C 92 % 92 % 0 % 1024,6 hPa 0,0 l/m 0,0 km/h (0 Bft) S 180 0 min 0,0 UV-I 2,1 C 3,4 C 0,0 km/h (0 Bft)
18.11.2011 20:40 3,3 C 10,5 C 3,7 C 3,4 C 3,4 C 0,1 C 92 % 92 % 0 % 1024,1 hPa 0,0 l/m 0,0 km/h (0 Bft) S 180 0 min 0,0 UV-I 2,1 C 3,4 C 0,0 km/h (0 Bft)
18.11.2011 20:45 3,3 C 10,5 C 3,6 C 3,4 C 3,4 C 0,1 C 92 % 92 % 0 % 1024,1 hPa 0,0 l/m 0,0 km/h (0 Bft) SO 135 0 min 0,0 UV-I 2,1 C 3,4 C 0,0 km/h (0 Bft)
18.11.2011 20:50 3,3 C 10,5 C 3,6 C 3,5 C 3,5 C 0,2 C 92 % 92 % 0 % 1024,1 hPa 0,0 l/m 0,0 km/h (0 Bft) SO 135 0 min 0,0 UV-I 2,1 C 3,5 C 0,0 km/h (0 Bft)
18.11.2011 20:55 3,3 C 10,5 C 3,6 C 3,6 C 3,6 C 0,3 C 92 % 92 % 0 % 1024,1 hPa 0,0 l/m 0,0 km/h (0 Bft) SO 135 0 min 0,0 UV-I 2,1 C 3,6 C 0,0 km/h (0 Bft)
18.11.2011 21:00 3,3 C 10,5 C 3,7 C 3,6 C 3,6 C 0,3 C 92 % 92 % 0 % 1024,4 hPa 0,0 l/m 0,0 km/h (0 Bft) S-SW 202 0 min 0,0 UV-I 2,1 C 3,6 C 0,0 km/h (0 Bft)
18.11.2011 21:04 3,3 C 10,5 C 3,7 C 3,6 C 3,6 C 0,3 C 92 % 93 % 0 % 1024,4 hPa 0,0 l/m 0,0 km/h (0 Bft) S-SW 202 0 min 0,0 UV-I 2,1 C 3,6 C 0,0 km/h (0 Bft)
18.11.2011 21:09 3,3 C 10,5 C 3,7 C 3,6 C 3,6 C 0,3 C 92 % 93 % 0 % 1024,4 hPa 0,0 l/m 0,0 km/h (0 Bft) S-SW 202 0 min 0,0 UV-I 2,1 C 3,6 C 0,0 km/h (0 Bft)
18.11.2011 21:14 3,3 C 10,5 C 3,7 C 3,6 C 3,6 C 0,3 C 92 % 93 % 0 % 1024,4 hPa 0,0 l/m 0,0 km/h (0 Bft) S-SW 202 0 min 0,0 UV-I 2,1 C 3,6 C 0,0 km/h (0 Bft)
18.11.2011 21:21 3,3 C 10,5 C 3,7 C 3,6 C 3,6 C 0,3 C 92 % 93 % 0 % 1024,4 hPa 0,0 l/m 0,0 km/h (0 Bft) S-SW 202 0 min 0,0 UV-I 2,1 C 3,6 C 0,0 km/h (0 Bft)
18.11.2011 21:25 3,3 C 10,5 C 3,7 C 3,6 C 3,6 C 0,3 C 92 % 93 % 0 % 1024,4 hPa 0,0 l/m 0,0 km/h (0 Bft) S-SW 202 0 min 0,0 UV-I 2,1 C 3,6 C 0,0 km/h (0 Bft)
18.11.2011 21:30 3,3 C 10,5 C 3,7 C 3,6 C 3,6 C 0,3 C 92 % 93 % 0 % 1024,4 hPa 0,0 l/m 0,0 km/h (0 Bft) S-SW 202 0 min 0,0 UV-I 2,1 C 3,6 C 0,0 km/h (0 Bft)
18.11.2011 21:35 3,2 C 10,5 C 3,7 C 3,5 C 3,5 C 0,3 C 92 % 93 % 0 % 1024,4 hPa 0,0 l/m 0,0 km/h (0 Bft) S-SW 202 0 min 0,0 UV-I 2,0 C 3,5 C 0,0 km/h (0 Bft)
18.11.2011 21:40 3,2 C 10,5 C 3,6 C 3,5 C 3,5 C 0,3 C 92 % 93 % 0 % 1024,1 hPa 0,0 l/m 0,0 km/h (0 Bft) S 180 0 min 0,0 UV-I 2,0 C 3,5 C 0,0 km/h (0 Bft)
18.11.2011 21:45 3,2 C 10,5 C 3,6 C 3,4 C 3,4 C 0,2 C 92 % 93 % 0 % 1024,1 hPa 0,0 l/m 0,0 km/h (0 Bft) S 180 0 min 0,0 UV-I 2,0 C 3,4 C 0,0 km/h (0 Bft)
18.11.2011 21:50 3,3 C 10,5 C 3,6 C 3,4 C 3,4 C 0,1 C 92 % 93 % 0 % 1024,1 hPa 0,0 l/m 0,0 km/h (0 Bft) S 180 0 min 0,0 UV-I 2,1 C 3,4 C 0,0 km/h (0 Bft)
18.11.2011 21:55 3,3 C 10,5 C 3,6 C 3,4 C 3,4 C 0,1 C 92 % 93 % 0 % 1024,1 hPa 0,0 l/m 0,0 km/h (0 Bft) S 180 0 min 0,0 UV-I 2,1 C 3,4 C 0,0 km/h (0 Bft)
18.11.2011 22:00 3,3 C 10,5 C 3,6 C 3,5 C 3,5 C 0,2 C 92 % 93 % 0 % 1024,1 hPa 0,0 l/m 0,0 km/h (0 Bft) S 180 0 min 0,0 UV-I 2,1 C 3,5 C 0,0 km/h (0 Bft)
18.11.2011 22:10 3,2 C 10,5 C 3,6 C 3,5 C 3,5 C 0,3 C 92 % 93 % 0 % 1024,1 hPa 0,0 l/m 0,0 km/h (0 Bft) N 0 0 min 0,0 UV-I 2,0 C 3,5 C 0,0 km/h (0 Bft)
18.11.2011 22:20 3,2 C 10,5 C 3,6 C 3,6 C 3,6 C 0,4 C 92 % 93 % 0 % 1024,8 hPa 0,0 l/m 0,0 km/h (0 Bft) S 180 0 min 0,0 UV-I 2,0 C 3,6 C 0,0 km/h (0 Bft)
18.11.2011 22:25 3,2 C 10,5 C 3,7 C 3,6 C 3,6 C 0,4 C 92 % 93 % 0 % 1024,8 hPa 0,0 l/m 0,0 km/h (0 Bft) S 180 0 min 0,0 UV-I 2,0 C 3,6 C 0,0 km/h (0 Bft)
18.11.2011 22:30 3,2 C 10,5 C 3,7 C 3,6 C 3,6 C 0,4 C 92 % 93 % 0 % 1024,8 hPa 0,0 l/m 0,0 km/h (0 Bft) S 180 0 min 0,0 UV-I 2,0 C 3,6 C 0,0 km/h (0 Bft)
18.11.2011 22:35 3,2 C 10,5 C 3,7 C 3,6 C 3,6 C 0,4 C 92 % 93 % 0 % 1024,8 hPa 0,0 l/m 0,0 km/h (0 Bft) S 180 0 min 0,0 UV-I 2,0 C 3,6 C 0,0 km/h (0 Bft)
18.11.2011 22:40 3,2 C 10,5 C 3,7 C 3,7 C 3,7 C 0,5 C 92 % 93 % 0 % 1024,4 hPa 0,0 l/m 0,0 km/h (0 Bft) S 180 0 min 0,0 UV-I 2,0 C 3,7 C 0,0 km/h (0 Bft)
18.11.2011 22:45 3,2 C 10,5 C 3,7 C 3,7 C 3,7 C 0,5 C 92 % 93 % 0 % 1024,4 hPa 0,0 l/m 0,0 km/h (0 Bft) S 180 0 min 0,0 UV-I 2,0 C 3,7 C 0,0 km/h (0 Bft)
18.11.2011 22:50 3,2 C 10,5 C 3,7 C 3,7 C 3,7 C 0,5 C 92 % 93 % 0 % 1024,4 hPa 0,0 l/m 0,0 km/h (0 Bft) S 180 0 min 0,0 UV-I 2,0 C 3,7 C 0,0 km/h (0 Bft)
18.11.2011 22:55 3,3 C 10,5 C 3,8 C 3,7 C 3,7 C 0,4 C 92 % 93 % 0 % 1024,4 hPa 0,0 l/m 0,0 km/h (0 Bft) SO 135 0 min 0,0 UV-I 2,1 C 3,7 C 0,0 km/h (0 Bft)
18.11.2011 23:00 3,3 C 10,5 C 3,7 C 3,7 C 3,7 C 0,4 C 92 % 93 % 0 % 1024,4 hPa 0,0 l/m 0,0 km/h (0 Bft) S 180 0 min 0,0 UV-I 2,1 C 3,7 C 0,0 km/h (0 Bft)
18.11.2011 23:10 3,3 C 10,5 C 3,7 C 3,7 C 3,7 C 0,4 C 92 % 93 % 0 % 1024,4 hPa 0,0 l/m 0,0 km/h (0 Bft) N 0 0 min 0,0 UV-I 2,1 C 3,7 C 0,0 km/h (0 Bft)
18.11.2011 23:20 3,3 C 10,5 C 3,7 C 3,6 C 3,6 C 0,3 C 92 % 93 % 0 % 1024,2 hPa 0,0 l/m 0,0 km/h (0 Bft) S 180 0 min 0,0 UV-I 2,1 C 3,6 C 0,0 km/h (0 Bft)
18.11.2011 23:25 3,2 C 10,5 C 3,7 C 3,6 C 3,6 C 0,4 C 92 % 93 % 0 % 1024,2 hPa 0,0 l/m 0,0 km/h (0 Bft) S 180 0 min 0,0 UV-I 2,0 C 3,6 C 0,0 km/h (0 Bft)
18.11.2011 23:30 3,2 C 10,5 C 3,7 C 3,6 C 3,6 C 0,4 C 92 % 93 % 0 % 1024,2 hPa 0,0 l/m 0,0 km/h (0 Bft) S 180 0 min 0,0 UV-I 2,0 C 3,6 C 0,0 km/h (0 Bft)
18.11.2011 23:35 3,2 C 10,5 C 3,7 C 3,7 C 3,7 C 0,5 C 92 % 93 % 0 % 1024,2 hPa 0,0 l/m 0,0 km/h (0 Bft) SO 135 0 min 0,0 UV-I 2,0 C 3,7 C 0,0 km/h (0 Bft)
18.11.2011 23:40 3,3 C 10,5 C 3,7 C 3,7 C 3,7 C 0,4 C 92 % 93 % 0 % 1024,2 hPa 0,0 l/m 0,0 km/h (0 Bft) SO 135 0 min 0,0 UV-I 2,1 C 3,7 C 0,0 km/h (0 Bft)
18.11.2011 23:45 3,3 C 10,5 C 3,7 C 3,7 C 3,7 C 0,4 C 92 % 93 % 0 % 1024,2 hPa 0,0 l/m 0,0 km/h (0 Bft) SO 135 0 min 0,0 UV-I 2,1 C 3,7 C 0,0 km/h (0 Bft)
18.11.2011 23:50 3,3 C 10,5 C 3,7 C 3,7 C 3,7 C 0,4 C 92 % 93 % 0 % 1024,2 hPa 0,0 l/m 0,0 km/h (0 Bft) SO 135 0 min 0,0 UV-I 2,1 C 3,7 C 0,0 km/h (0 Bft)
18.11.2011 23:55 3,3 C 10,5 C 3,7 C 3,7 C 3,7 C 0,4 C 92 % 93 % 0 % 1024,2 hPa 0,0 l/m 0,0 km/h (0 Bft) SO 135 0 min 0,0 UV-I 2,1 C 3,7 C 0,0 km/h (0 Bft)
_ Min-Zeit 00:00 00:00 00:00 00:09 00:35 00:09 14:55 15:09 00:00 19:40 - 02:00 - - - 00:00 00:00 00:35 00:45
Minimum _ 1,5 C 9,2 C 1,7 C 1,5 C 1,1 C 0,0 C 85 % 88 % 0 % 1024,1 hPa - 0,0 km/h (0 Bft) - - - 0,0 UV-I 0,5 C 1,1 C 0,0 km/h (0 Bft)
_ Max-Zeit 14:25 19:25 14:35 14:40 14:40 11:35 00:00 00:04 11:35 12:00 00:00 00:35 - - 07:45 00:00 14:25 14:40 00:40
Maximum _ 7,9 C 10,5 C 7,5 C 9,0 C 9,0 C 1,5 C 93 % 93 % 39 % 1026,2 hPa 0,0 l/m 4,3 km/h
S-SW (1 Bft)
- - 5 min 0,0 UV-I 5,7 C 9,0 C 9,8 km/h
W-SW (2 Bft)
Durchschnitt _ 4,3 C 9,8 C 4,4 C 4,7 C 4,7 C 0,5 C 91 % 92 % 9 % 1025,0 hPa #0,0 l/m 0,5 km/h (0 Bft) W-SW - #15 min. 0,0 UV-I 2,9 C 4,7 C 0,7 km/h (0 Bft)
2011 www.wetterstation-wechselburg.de